sensor_id;sensor_type;location;lat;lon;timestamp;pressure;altitude;pressure_sealevel;temperature;humidity
68594;BME280;55563;52.416;13.548;2023-02-14T00:00:09;103361.03;;;4.84;100.00
68594;BME280;55563;52.416;13.548;2023-02-14T00:02:10;103354.34;;;4.82;100.00
68594;BME280;55563;52.416;13.548;2023-02-14T00:04:12;103354.84;;;4.86;100.00
68594;BME280;55563;52.416;13.548;2023-02-14T00:06:13;103359.25;;;4.85;100.00
68594;BME280;55563;52.416;13.548;2023-02-14T00:08:14;103358.44;;;4.84;100.00
68594;BME280;55563;52.416;13.548;2023-02-14T00:10:16;103356.81;;;4.83;100.00
68594;BME280;55563;52.416;13.548;2023-02-14T00:12:16;103359.56;;;4.82;100.00
68594;BME280;55563;52.416;13.548;2023-02-14T00:14:22;103356.47;;;4.78;100.00
68594;BME280;55563;52.416;13.548;2023-02-14T00:16:46;103346.50;;;4.74;100.00
68594;BME280;55563;52.416;13.548;2023-02-14T00:18:47;103346.50;;;4.74;100.00
68594;BME280;55563;52.416;13.548;2023-02-14T00:21:06;103351.72;;;4.74;100.00
68594;BME280;55563;52.416;13.548;2023-02-14T00:23:07;103356.59;;;4.77;100.00
68594;BME280;55563;52.416;13.548;2023-02-14T00:25:07;103357.28;;;4.79;100.00
68594;BME280;55563;52.416;13.548;2023-02-14T00:27:16;103348.78;;;4.77;100.00
68594;BME280;55563;52.416;13.548;2023-02-14T00:29:21;103350.88;;;4.73;100.00
68594;BME280;55563;52.416;13.548;2023-02-14T00:31:23;103355.59;;;4.70;100.00
68594;BME280;55563;52.416;13.548;2023-02-14T00:33:24;103353.13;;;4.68;100.00
68594;BME280;55563;52.416;13.548;2023-02-14T00:35:25;103351.25;;;4.61;100.00
68594;BME280;55563;52.416;13.548;2023-02-14T00:37:30;103353.72;;;4.62;100.00
68594;BME280;55563;52.416;13.548;2023-02-14T00:39:31;103343.66;;;4.67;100.00
68594;BME280;55563;52.416;13.548;2023-02-14T00:41:33;103347.78;;;4.70;100.00
68594;BME280;55563;52.416;13.548;2023-02-14T00:43:33;103343.53;;;4.69;100.00
68594;BME280;55563;52.416;13.548;2023-02-14T00:45:34;103347.09;;;4.68;100.00
68594;BME280;55563;52.416;13.548;2023-02-14T00:47:34;103352.16;;;4.69;100.00
68594;BME280;55563;52.416;13.548;2023-02-14T00:49:35;103342.56;;;4.70;100.00
68594;BME280;55563;52.416;13.548;2023-02-14T00:51:36;103346.78;;;4.71;100.00
68594;BME280;55563;52.416;13.548;2023-02-14T00:53:37;103344.84;;;4.73;100.00
68594;BME280;55563;52.416;13.548;2023-02-14T00:55:39;103342.91;;;4.75;100.00
68594;BME280;55563;52.416;13.548;2023-02-14T00:57:39;103340.16;;;4.76;100.00
68594;BME280;55563;52.416;13.548;2023-02-14T00:59:40;103343.06;;;4.73;100.00
68594;BME280;55563;52.416;13.548;2023-02-14T01:01:41;103349.59;;;4.77;100.00
68594;BME280;55563;52.416;13.548;2023-02-14T01:03:43;103342.09;;;4.74;100.00
68594;BME280;55563;52.416;13.548;2023-02-14T01:05:46;103338.81;;;4.72;100.00
68594;BME280;55563;52.416;13.548;2023-02-14T01:07:47;103340.47;;;4.73;100.00
68594;BME280;55563;52.416;13.548;2023-02-14T01:09:48;103341.22;;;4.66;100.00
68594;BME280;55563;52.416;13.548;2023-02-14T01:11:49;103333.25;;;4.67;100.00
68594;BME280;55563;52.416;13.548;2023-02-14T01:13:50;103340.09;;;4.68;100.00
68594;BME280;55563;52.416;13.548;2023-02-14T01:15:51;103329.69;;;4.68;100.00
68594;BME280;55563;52.416;13.548;2023-02-14T01:17:51;103335.13;;;4.57;100.00
68594;BME280;55563;52.416;13.548;2023-02-14T01:19:55;103332.38;;;4.59;100.00
68594;BME280;55563;52.416;13.548;2023-02-14T01:21:57;103329.63;;;4.60;100.00
68594;BME280;55563;52.416;13.548;2023-02-14T01:24:00;103336.31;;;4.63;100.00
68594;BME280;55563;52.416;13.548;2023-02-14T01:26:04;103325.22;;;4.61;100.00
68594;BME280;55563;52.416;13.548;2023-02-14T01:28:06;103325.84;;;4.55;100.00
68594;BME280;55563;52.416;13.548;2023-02-14T01:30:07;103327.31;;;4.57;100.00
68594;BME280;55563;52.416;13.548;2023-02-14T01:32:08;103332.06;;;4.62;100.00
68594;BME280;55563;52.416;13.548;2023-02-14T01:34:08;103321.00;;;4.60;100.00
68594;BME280;55563;52.416;13.548;2023-02-14T01:36:27;103331.09;;;4.63;100.00
68594;BME280;55563;52.416;13.548;2023-02-14T01:38:29;103324.13;;;4.63;100.00
68594;BME280;55563;52.416;13.548;2023-02-14T01:40:30;103317.13;;;4.64;100.00
68594;BME280;55563;52.416;13.548;2023-02-14T01:42:32;103316.72;;;4.51;100.00
68594;BME280;55563;52.416;13.548;2023-02-14T01:46:44;103309.22;;;4.56;100.00
68594;BME280;55563;52.416;13.548;2023-02-14T01:48:45;103314.97;;;4.59;100.00
68594;BME280;55563;52.416;13.548;2023-02-14T01:50:47;103314.00;;;4.60;100.00
68594;BME280;55563;52.416;13.548;2023-02-14T01:52:55;103311.22;;;4.62;100.00
68594;BME280;55563;52.416;13.548;2023-02-14T01:55:01;103304.56;;;4.59;100.00
68594;BME280;55563;52.416;13.548;2023-02-14T01:57:05;103310.06;;;4.56;100.00
68594;BME280;55563;52.416;13.548;2023-02-14T01:59:11;103307.44;;;4.56;100.00
68594;BME280;55563;52.416;13.548;2023-02-14T02:01:17;103309.66;;;4.43;100.00
68594;BME280;55563;52.416;13.548;2023-02-14T02:03:19;103304.56;;;4.42;100.00
68594;BME280;55563;52.416;13.548;2023-02-14T02:05:20;103311.06;;;4.37;100.00
68594;BME280;55563;52.416;13.548;2023-02-14T02:07:25;103308.16;;;4.41;100.00
68594;BME280;55563;52.416;13.548;2023-02-14T02:09:32;103310.31;;;4.45;100.00
68594;BME280;55563;52.416;13.548;2023-02-14T02:11:33;103316.34;;;4.46;100.00
68594;BME280;55563;52.416;13.548;2023-02-14T02:13:34;103312.59;;;4.48;100.00
68594;BME280;55563;52.416;13.548;2023-02-14T02:15:44;103315.72;;;4.52;100.00
68594;BME280;55563;52.416;13.548;2023-02-14T02:20:15;103309.41;;;4.54;100.00
68594;BME280;55563;52.416;13.548;2023-02-14T02:22:52;103312.81;;;4.55;100.00
68594;BME280;55563;52.416;13.548;2023-02-14T02:25:13;103314.34;;;4.39;100.00
68594;BME280;55563;52.416;13.548;2023-02-14T02:27:32;103312.84;;;4.37;100.00
68594;BME280;55563;52.416;13.548;2023-02-14T02:35:11;103310.09;;;4.38;100.00
68594;BME280;55563;52.416;13.548;2023-02-14T02:37:29;103312.19;;;4.35;100.00
68594;BME280;55563;52.416;13.548;2023-02-14T02:42:18;103309.59;;;4.35;100.00
68594;BME280;55563;52.416;13.548;2023-02-14T02:44:33;103306.66;;;4.38;100.00
68594;BME280;55563;52.416;13.548;2023-02-14T02:46:39;103312.25;;;4.43;100.00
68594;BME280;55563;52.416;13.548;2023-02-14T02:48:59;103318.28;;;4.44;100.00
68594;BME280;55563;52.416;13.548;2023-02-14T02:51:06;103316.19;;;4.47;100.00
68594;BME280;55563;52.416;13.548;2023-02-14T02:53:42;103314.53;;;4.46;100.00
68594;BME280;55563;52.416;13.548;2023-02-14T02:55:51;103313.75;;;4.46;100.00
68594;BME280;55563;52.416;13.548;2023-02-14T02:58:14;103315.53;;;4.45;100.00
68594;BME280;55563;52.416;13.548;2023-02-14T03:00:15;103312.56;;;4.40;100.00
68594;BME280;55563;52.416;13.548;2023-02-14T03:02:21;103314.94;;;4.33;100.00
68594;BME280;55563;52.416;13.548;2023-02-14T03:04:23;103312.19;;;4.35;100.00
68594;BME280;55563;52.416;13.548;2023-02-14T03:06:46;103312.19;;;4.35;100.00
68594;BME280;55563;52.416;13.548;2023-02-14T03:08:47;103315.63;;;4.35;100.00
68594;BME280;55563;52.416;13.548;2023-02-14T03:10:48;103312.69;;;4.38;100.00
68594;BME280;55563;52.416;13.548;2023-02-14T03:13:20;103313.53;;;4.39;100.00
68594;BME280;55563;52.416;13.548;2023-02-14T03:16:02;103324.38;;;4.34;100.00
68594;BME280;55563;52.416;13.548;2023-02-14T03:18:28;103313.16;;;4.34;100.00
68594;BME280;55563;52.416;13.548;2023-02-14T03:21:03;103307.28;;;4.32;100.00
68594;BME280;55563;52.416;13.548;2023-02-14T03:23:16;103314.94;;;4.33;100.00
68594;BME280;55563;52.416;13.548;2023-02-14T03:28:17;103310.91;;;4.39;100.00
68594;BME280;55563;52.416;13.548;2023-02-14T03:33:00;103309.88;;;4.32;100.00
68594;BME280;55563;52.416;13.548;2023-02-14T03:37:45;103313.97;;;4.34;100.00
68594;BME280;55563;52.416;13.548;2023-02-14T03:40:29;103305.19;;;4.35;100.00
68594;BME280;55563;52.416;13.548;2023-02-14T03:42:21;103301.78;;;4.35;100.00
68594;BME280;55563;52.416;13.548;2023-02-14T03:44:25;103306.03;;;4.36;100.00
68594;BME280;55563;52.416;13.548;2023-02-14T03:46:42;103303.25;;;4.37;100.00
68594;BME280;55563;52.416;13.548;2023-02-14T03:48:46;103308.09;;;4.32;100.00
68594;BME280;55563;52.416;13.548;2023-02-14T03:50:49;103310.69;;;4.32;100.00
68594;BME280;55563;52.416;13.548;2023-02-14T03:52:52;103308.72;;;4.26;100.00
68594;BME280;55563;52.416;13.548;2023-02-14T03:54:56;103305.81;;;4.29;100.00
68594;BME280;55563;52.416;13.548;2023-02-14T03:57:07;103301.41;;;4.30;100.00
68594;BME280;55563;52.416;13.548;2023-02-14T03:59:14;103298.81;;;4.30;100.00
68594;BME280;55563;52.416;13.548;2023-02-14T04:01:20;103303.88;;;4.31;100.00
68594;BME280;55563;52.416;13.548;2023-02-14T04:03:24;103305.50;;;4.32;100.00
68594;BME280;55563;52.416;13.548;2023-02-14T04:05:27;103301.69;;;4.27;100.00
68594;BME280;55563;52.416;13.548;2023-02-14T04:07:28;103294.19;;;4.24;100.00
68594;BME280;55563;52.416;13.548;2023-02-14T04:09:28;103295.97;;;4.23;100.00
68594;BME280;55563;52.416;13.548;2023-02-14T04:11:31;103299.09;;;4.27;100.00
68594;BME280;55563;52.416;13.548;2023-02-14T04:13:35;103297.47;;;4.26;100.00
68594;BME280;55563;52.416;13.548;2023-02-14T04:15:36;103295.53;;;4.28;100.00
68594;BME280;55563;52.416;13.548;2023-02-14T04:17:37;103302.53;;;4.27;100.00
68594;BME280;55563;52.416;13.548;2023-02-14T04:19:58;103300.22;;;4.24;100.00
68594;BME280;55563;52.416;13.548;2023-02-14T04:21:59;103300.09;;;4.26;100.00
68594;BME280;55563;52.416;13.548;2023-02-14T04:23:59;103297.63;;;4.24;100.00
68594;BME280;55563;52.416;13.548;2023-02-14T04:26:00;103297.75;;;4.23;100.00
68594;BME280;55563;52.416;13.548;2023-02-14T04:28:03;103297.75;;;4.23;100.00
68594;BME280;55563;52.416;13.548;2023-02-14T04:30:04;103303.78;;;4.23;100.00
68594;BME280;55563;52.416;13.548;2023-02-14T04:32:07;103295.16;;;4.23;100.00
68594;BME280;55563;52.416;13.548;2023-02-14T04:34:08;103296.66;;;4.25;100.00
68594;BME280;55563;52.416;13.548;2023-02-14T04:36:09;103286.06;;;4.27;100.00
68594;BME280;55563;52.416;13.548;2023-02-14T04:38:10;103291.81;;;4.30;100.00
68594;BME280;55563;52.416;13.548;2023-02-14T04:40:11;103288.53;;;4.28;100.00
68594;BME280;55563;52.416;13.548;2023-02-14T04:42:12;103290.31;;;4.28;100.00
68594;BME280;55563;52.416;13.548;2023-02-14T04:44:12;103284.28;;;4.27;100.00
68594;BME280;55563;52.416;13.548;2023-02-14T04:46:13;103288.69;;;4.27;100.00
68594;BME280;55563;52.416;13.548;2023-02-14T04:48:14;103286.06;;;4.27;100.00
68594;BME280;55563;52.416;13.548;2023-02-14T04:50:14;103285.28;;;4.26;100.00
68594;BME280;55563;52.416;13.548;2023-02-14T04:52:15;103286.03;;;4.19;100.00
68594;BME280;55563;52.416;13.548;2023-02-14T04:54:16;103280.44;;;4.14;100.00
68594;BME280;55563;52.416;13.548;2023-02-14T04:56:17;103287.16;;;4.16;100.00
68594;BME280;55563;52.416;13.548;2023-02-14T04:58:17;103284.38;;;4.18;100.00
68594;BME280;55563;52.416;13.548;2023-02-14T05:00:18;103281.63;;;4.19;100.00
68594;BME280;55563;52.416;13.548;2023-02-14T05:02:19;103278.34;;;4.17;100.00
68594;BME280;55563;52.416;13.548;2023-02-14T05:04:20;103280.09;;;4.26;100.00
68594;BME280;55563;52.416;13.548;2023-02-14T05:06:21;103269.66;;;4.26;100.00
68594;BME280;55563;52.416;13.548;2023-02-14T05:08:22;103282.00;;;4.24;100.00
68594;BME280;55563;52.416;13.548;2023-02-14T05:10:22;103277.94;;;4.22;100.00
68594;BME280;55563;52.416;13.548;2023-02-14T05:12:23;103272.72;;;4.22;100.00
68594;BME280;55563;52.416;13.548;2023-02-14T05:14:24;103267.31;;;4.15;100.00
68594;BME280;55563;52.416;13.548;2023-02-14T05:16:25;103264.84;;;4.14;100.00
68594;BME280;55563;52.416;13.548;2023-02-14T05:18:26;103274.28;;;4.15;100.00
68594;BME280;55563;52.416;13.548;2023-02-14T05:20:28;103279.50;;;4.15;100.00
68594;BME280;55563;52.416;13.548;2023-02-14T05:22:28;103279.25;;;4.08;100.00
68594;BME280;55563;52.416;13.548;2023-02-14T05:24:29;103273.91;;;4.10;100.00
68594;BME280;55563;52.416;13.548;2023-02-14T05:26:30;103265.66;;;4.14;100.00
68594;BME280;55563;52.416;13.548;2023-02-14T05:28:31;103260.22;;;4.08;100.00
68594;BME280;55563;52.416;13.548;2023-02-14T05:30:32;103260.91;;;4.10;100.00
68594;BME280;55563;52.416;13.548;2023-02-14T05:32:32;103264.78;;;4.06;100.00
68594;BME280;55563;52.416;13.548;2023-02-14T05:34:33;103255.03;;;4.08;100.00
68594;BME280;55563;52.416;13.548;2023-02-14T05:36:34;103257.81;;;4.06;100.00
68594;BME280;55563;52.416;13.548;2023-02-14T05:38:35;103268.84;;;4.08;100.00
68594;BME280;55563;52.416;13.548;2023-02-14T05:40:36;103272.44;;;4.07;100.00
68594;BME280;55563;52.416;13.548;2023-02-14T05:42:37;103263.38;;;4.11;100.00
68594;BME280;55563;52.416;13.548;2023-02-14T05:44:37;103266.13;;;4.10;100.00
68594;BME280;55563;52.416;13.548;2023-02-14T05:46:39;103274.75;;;4.10;100.00
68594;BME280;55563;52.416;13.548;2023-02-14T05:48:39;103265.44;;;4.08;100.00
68594;BME280;55563;52.416;13.548;2023-02-14T05:50:40;103270.31;;;4.03;100.00
68594;BME280;55563;52.416;13.548;2023-02-14T05:52:42;103270.63;;;4.08;100.00
68594;BME280;55563;52.416;13.548;2023-02-14T05:54:42;103269.53;;;4.10;100.00
68594;BME280;55563;52.416;13.548;2023-02-14T05:56:43;103278.81;;;4.13;100.00
68594;BME280;55563;52.416;13.548;2023-02-14T05:58:44;103271.31;;;4.10;100.00
68594;BME280;55563;52.416;13.548;2023-02-14T06:00:44;103271.78;;;4.05;100.00
68594;BME280;55563;52.416;13.548;2023-02-14T06:02:45;103270.22;;;3.94;100.00
68594;BME280;55563;52.416;13.548;2023-02-14T06:04:46;103265.69;;;3.97;100.00
68594;BME280;55563;52.416;13.548;2023-02-14T06:06:47;103270.44;;;4.01;100.00
68594;BME280;55563;52.416;13.548;2023-02-14T06:08:47;103265.25;;;4.01;100.00
68594;BME280;55563;52.416;13.548;2023-02-14T06:10:48;103263.50;;;4.10;100.00
68594;BME280;55563;52.416;13.548;2023-02-14T06:12:50;103258.81;;;4.13;100.00
68594;BME280;55563;52.416;13.548;2023-02-14T06:14:52;103269.53;;;4.10;100.00
68594;BME280;55563;52.416;13.548;2023-02-14T06:16:53;103259.81;;;4.12;100.00
68594;BME280;55563;52.416;13.548;2023-02-14T06:18:56;103272.72;;;4.04;100.00
68594;BME280;55563;52.416;13.548;2023-02-14T06:20:56;103265.88;;;4.03;100.00
68594;BME280;55563;52.416;13.548;2023-02-14T06:22:57;103271.78;;;4.05;100.00
68594;BME280;55563;52.416;13.548;2023-02-14T06:24:58;103264.09;;;4.04;100.00
68594;BME280;55563;52.416;13.548;2023-02-14T06:26:59;103267.69;;;4.03;100.00
68594;BME280;55563;52.416;13.548;2023-02-14T06:29:00;103273.69;;;4.03;100.00
68594;BME280;55563;52.416;13.548;2023-02-14T06:31:01;103271.91;;;4.04;100.00
68594;BME280;55563;52.416;13.548;2023-02-14T06:33:02;103271.78;;;4.05;100.00
68594;BME280;55563;52.416;13.548;2023-02-14T06:35:03;103276.16;;;4.05;100.00
68594;BME280;55563;52.416;13.548;2023-02-14T06:37:05;103278.09;;;4.03;100.00
68594;BME280;55563;52.416;13.548;2023-02-14T06:39:06;103276.47;;;4.02;100.00
68594;BME280;55563;52.416;13.548;2023-02-14T06:41:08;103278.63;;;4.06;100.00
68594;BME280;55563;52.416;13.548;2023-02-14T06:43:09;103276.00;;;4.06;100.00
68594;BME280;55563;52.416;13.548;2023-02-14T06:45:10;103283.66;;;4.08;100.00
68594;BME280;55563;52.416;13.548;2023-02-14T06:47:11;103275.34;;;4.04;100.00
68594;BME280;55563;52.416;13.548;2023-02-14T06:49:12;103268.78;;;4.00;100.00
68594;BME280;55563;52.416;13.548;2023-02-14T06:51:13;103271.91;;;4.04;100.00
68594;BME280;55563;52.416;13.548;2023-02-14T06:53:14;103275.84;;;4.08;100.00
68594;BME280;55563;52.416;13.548;2023-02-14T06:55:15;103273.09;;;4.09;100.00
68594;BME280;55563;52.416;13.548;2023-02-14T06:57:15;103272.00;;;4.12;100.00
68594;BME280;55563;52.416;13.548;2023-02-14T06:59:16;103278.81;;;4.13;100.00
68594;BME280;55563;52.416;13.548;2023-02-14T07:01:17;103275.84;;;4.08;100.00
68594;BME280;55563;52.416;13.548;2023-02-14T07:03:18;103268.84;;;4.08;100.00
68594;BME280;55563;52.416;13.548;2023-02-14T07:05:18;103273.47;;;4.14;100.00
68594;BME280;55563;52.416;13.548;2023-02-14T07:07:19;103274.78;;;4.18;100.00
68594;BME280;55563;52.416;13.548;2023-02-14T07:09:20;103274.78;;;4.18;100.00
68594;BME280;55563;52.416;13.548;2023-02-14T07:11:22;103272.19;;;4.18;100.00
68594;BME280;55563;52.416;13.548;2023-02-14T07:14:11;103267.66;;;4.20;100.00
68594;BME280;55563;52.416;13.548;2023-02-14T07:16:12;103268.16;;;4.24;100.00
68594;BME280;55563;52.416;13.548;2023-02-14T07:18:13;103270.63;;;4.25;100.00
68594;BME280;55563;52.416;13.548;2023-02-14T07:20:17;103269.00;;;4.24;100.00
68594;BME280;55563;52.416;13.548;2023-02-14T07:22:18;103275.84;;;4.25;100.00
68594;BME280;55563;52.416;13.548;2023-02-14T07:24:19;103273.22;;;4.25;100.00
68594;BME280;55563;52.416;13.548;2023-02-14T07:26:20;103267.72;;;4.28;100.00
68594;BME280;55563;52.416;13.548;2023-02-14T07:28:21;103269.03;;;4.32;100.00
68594;BME280;55563;52.416;13.548;2023-02-14T07:30:22;103270.53;;;4.35;100.00
68594;BME280;55563;52.416;13.548;2023-02-14T07:32:22;103264.97;;;4.30;100.00
68594;BME280;55563;52.416;13.548;2023-02-14T07:34:23;103274.06;;;4.26;100.00
68594;BME280;55563;52.416;13.548;2023-02-14T07:36:24;103270.31;;;4.28;100.00
68594;BME280;55563;52.416;13.548;2023-02-14T07:38:25;103274.25;;;4.32;100.00
68594;BME280;55563;52.416;13.548;2023-02-14T07:40:26;103273.97;;;4.35;100.00
68594;BME280;55563;52.416;13.548;2023-02-14T07:42:39;103276.38;;;4.37;100.00
68594;BME280;55563;52.416;13.548;2023-02-14T07:44:43;103274.38;;;4.49;100.00
68594;BME280;55563;52.416;13.548;2023-02-14T07:46:47;103269.03;;;4.50;100.00
68594;BME280;55563;52.416;13.548;2023-02-14T07:48:50;103263.81;;;4.50;100.00
68594;BME280;55563;52.416;13.548;2023-02-14T07:50:51;103263.34;;;4.55;100.00
68594;BME280;55563;52.416;13.548;2023-02-14T07:52:56;103262.53;;;4.54;100.00
68594;BME280;55563;52.416;13.548;2023-02-14T07:54:56;103269.06;;;4.58;100.00
68594;BME280;55563;52.416;13.548;2023-02-14T07:56:58;103264.97;;;4.56;100.00
68594;BME280;55563;52.416;13.548;2023-02-14T07:58:59;103264.34;;;4.62;100.00
68594;BME280;55563;52.416;13.548;2023-02-14T08:01:00;103255.25;;;4.66;100.00
68594;BME280;55563;52.416;13.548;2023-02-14T08:03:00;103258.38;;;4.69;100.00
68594;BME280;55563;52.416;13.548;2023-02-14T08:05:01;103262.31;;;4.73;100.00
68594;BME280;55563;52.416;13.548;2023-02-14T08:07:02;103262.31;;;4.73;100.00
68594;BME280;55563;52.416;13.548;2023-02-14T08:09:03;103263.78;;;4.76;100.00
68594;BME280;55563;52.416;13.548;2023-02-14T08:11:04;103273.03;;;4.70;100.00
68594;BME280;55563;52.416;13.548;2023-02-14T08:13:05;103276.16;;;4.74;100.00
68594;BME280;55563;52.416;13.548;2023-02-14T08:15:06;103272.13;;;4.79;100.00
68594;BME280;55563;52.416;13.548;2023-02-14T08:17:26;103283.03;;;4.83;100.00
68594;BME280;55563;52.416;13.548;2023-02-14T08:19:28;103264.94;;;4.81;100.00
68594;BME280;55563;52.416;13.548;2023-02-14T08:21:29;103278.09;;;4.72;100.00
68594;BME280;55563;52.416;13.548;2023-02-14T08:23:30;103281.53;;;4.80;100.00
68594;BME280;55563;52.416;13.548;2023-02-14T08:25:31;103285.66;;;4.83;100.00
68594;BME280;55563;52.416;13.548;2023-02-14T08:27:32;103284.22;;;4.89;100.00
68594;BME280;55563;52.416;13.548;2023-02-14T08:29:33;103292.84;;;4.89;100.00
68594;BME280;55563;52.416;13.548;2023-02-14T08:31:33;103296.44;;;4.88;100.00
68594;BME280;55563;52.416;13.548;2023-02-14T08:33:34;103295.28;;;4.91;100.00
68594;BME280;55563;52.416;13.548;2023-02-14T08:35:35;103301.16;;;4.93;100.00
68594;BME280;55563;52.416;13.548;2023-02-14T08:37:36;103298.25;;;4.96;100.00
68594;BME280;55563;52.416;13.548;2023-02-14T08:39:38;103302.97;;;4.92;100.00
68594;BME280;55563;52.416;13.548;2023-02-14T08:41:39;103294.16;;;4.93;100.00
68594;BME280;55563;52.416;13.548;2023-02-14T08:43:39;103291.56;;;4.93;100.00
68594;BME280;55563;52.416;13.548;2023-02-14T08:45:40;103290.56;;;4.94;100.00
68594;BME280;55563;52.416;13.548;2023-02-14T08:47:41;103298.75;;;4.99;100.00
68594;BME280;55563;52.416;13.548;2023-02-14T08:49:42;103297.94;;;4.99;100.00
68594;BME280;55563;52.416;13.548;2023-02-14T08:51:43;103297.63;;;5.02;100.00
68594;BME280;55563;52.416;13.548;2023-02-14T08:53:43;103306.41;;;5.01;100.00
68594;BME280;55563;52.416;13.548;2023-02-14T08:55:45;103302.16;;;5.00;100.00
68594;BME280;55563;52.416;13.548;2023-02-14T08:57:46;103306.91;;;5.04;100.00
68594;BME280;55563;52.416;13.548;2023-02-14T08:59:48;103299.78;;;5.14;100.00
68594;BME280;55563;52.416;13.548;2023-02-14T09:01:49;103304.38;;;5.20;100.00
68594;BME280;55563;52.416;13.548;2023-02-14T09:03:50;103303.56;;;5.20;100.00
68594;BME280;55563;52.416;13.548;2023-02-14T09:05:51;103300.31;;;5.18;100.00
68594;BME280;55563;52.416;13.548;2023-02-14T09:07:52;103309.59;;;5.20;100.00
68594;BME280;55563;52.416;13.548;2023-02-14T09:09:55;103295.59;;;5.21;100.00
68594;BME280;55563;52.416;13.548;2023-02-14T09:11:56;103291.38;;;5.28;100.00
68594;BME280;55563;52.416;13.548;2023-02-14T09:13:56;103299.19;;;5.28;100.00
68594;BME280;55563;52.416;13.548;2023-02-14T09:15:57;103297.25;;;5.31;100.00
68594;BME280;55563;52.416;13.548;2023-02-14T09:17:58;103303.78;;;5.35;100.00
68594;BME280;55563;52.416;13.548;2023-02-14T09:19:59;103295.25;;;5.24;100.00
68594;BME280;55563;52.416;13.548;2023-02-14T09:22:00;103295.94;;;5.26;100.00
68594;BME280;55563;52.416;13.548;2023-02-14T09:24:03;103300.69;;;5.31;100.00
68594;BME280;55563;52.416;13.548;2023-02-14T09:26:05;103300.00;;;5.29;100.00
68594;BME280;55563;52.416;13.548;2023-02-14T09:28:06;103301.50;;;5.32;100.00
68594;BME280;55563;52.416;13.548;2023-02-14T09:30:08;103299.53;;;5.34;100.00
68594;BME280;55563;52.416;13.548;2023-02-14T09:32:09;103298.41;;;5.36;100.00
68594;BME280;55563;52.416;13.548;2023-02-14T09:34:09;103300.69;;;5.39;100.00
68594;BME280;55563;52.416;13.548;2023-02-14T09:36:10;103302.63;;;5.37;100.00
68594;BME280;55563;52.416;13.548;2023-02-14T09:38:31;103293.53;;;5.41;100.00
68594;BME280;55563;52.416;13.548;2023-02-14T09:40:31;103285.72;;;5.49;100.00
68594;BME280;55563;52.416;13.548;2023-02-14T09:45:18;103302.06;;;5.51;100.00
68594;BME280;55563;52.416;13.548;2023-02-14T09:47:43;103299.94;;;5.55;100.00
68594;BME280;55563;52.416;13.548;2023-02-14T09:49:46;103306.94;;;5.46;100.00
68594;BME280;55563;52.416;13.548;2023-02-14T09:51:52;103306.13;;;5.54;100.00
68594;BME280;55563;52.416;13.548;2023-02-14T09:54:05;103294.53;;;5.56;100.00
68594;BME280;55563;52.416;13.548;2023-02-14T10:01:16;103304.53;;;5.69;100.00
68594;BME280;55563;52.416;13.548;2023-02-14T10:04:07;103306.00;;;5.71;100.00
68594;BME280;55563;52.416;13.548;2023-02-14T10:06:03;103302.91;;;5.68;100.00
68594;BME280;55563;52.416;13.548;2023-02-14T10:10:43;103301.09;;;5.77;100.00
68594;BME280;55563;52.416;13.548;2023-02-14T10:12:56;103295.59;;;5.80;100.00
68594;BME280;55563;52.416;13.548;2023-02-14T10:15:05;103301.44;;;5.82;100.00
68594;BME280;55563;52.416;13.548;2023-02-14T10:17:18;103289.22;;;5.82;100.00
68594;BME280;55563;52.416;13.548;2023-02-14T10:19:37;103299.31;;;5.77;100.00
68594;BME280;55563;52.416;13.548;2023-02-14T10:21:42;103294.91;;;5.78;100.00
68594;BME280;55563;52.416;13.548;2023-02-14T10:23:50;103294.91;;;5.78;100.00
68594;BME280;55563;52.416;13.548;2023-02-14T10:26:00;103289.06;;;5.84;100.00
68594;BME280;55563;52.416;13.548;2023-02-14T10:28:01;103296.94;;;5.92;100.00
68594;BME280;55563;52.416;13.548;2023-02-14T10:30:11;103287.97;;;5.94;100.00
68594;BME280;55563;52.416;13.548;2023-02-14T10:32:18;103296.09;;;5.91;100.00
68594;BME280;55563;52.416;13.548;2023-02-14T10:41:41;103283.56;;;6.03;100.00
68594;BME280;55563;52.416;13.548;2023-02-14T10:50:06;103284.19;;;6.05;100.00
68594;BME280;55563;52.416;13.548;2023-02-14T10:51:49;103279.16;;;6.03;100.00
68594;BME280;55563;52.416;13.548;2023-02-14T10:54:20;103285.66;;;5.91;100.00
68594;BME280;55563;52.416;13.548;2023-02-14T10:56:26;103285.03;;;5.97;100.00
68594;BME280;55563;52.416;13.548;2023-02-14T10:58:31;103280.59;;;6.14;100.00
68594;BME280;55563;52.416;13.548;2023-02-14T11:00:37;103275.38;;;6.06;100.00
68594;BME280;55563;52.416;13.548;2023-02-14T11:02:43;103280.31;;;6.09;100.00
68594;BME280;55563;52.416;13.548;2023-02-14T11:04:46;103276.56;;;6.03;100.00
68594;BME280;55563;52.416;13.548;2023-02-14T11:06:47;103277.53;;;5.94;100.00
68594;BME280;55563;52.416;13.548;2023-02-14T11:08:49;103283.06;;;5.91;100.00
68594;BME280;55563;52.416;13.548;2023-02-14T11:10:50;103280.94;;;5.95;100.00
68594;BME280;55563;52.416;13.548;2023-02-14T11:12:52;103271.50;;;5.94;100.00
68594;BME280;55563;52.416;13.548;2023-02-14T11:15:08;103269.53;;;6.04;100.00
68594;BME280;55563;52.416;13.548;2023-02-14T11:17:30;103267.41;;;5.99;100.00
68594;BME280;55563;52.416;13.548;2023-02-14T11:19:33;103267.56;;;5.90;100.00
68594;BME280;55563;52.416;13.548;2023-02-14T11:21:37;103270.31;;;6.21;100.00
68594;BME280;55563;52.416;13.548;2023-02-14T11:23:41;103271.66;;;6.17;100.00
68594;BME280;55563;52.416;13.548;2023-02-14T11:25:50;103271.13;;;6.29;100.00